sensor_id;sensor_type;location;lat;lon;timestamp;P1;durP1;ratioP1;P2;durP2;ratioP2
928;SDS011;451;47.988;7.842;2023-08-20T00:05:26;12.40;;;11.17;;
928;SDS011;451;47.988;7.842;2023-08-20T00:23:56;13.33;;;11.93;;
928;SDS011;451;47.988;7.842;2023-08-20T00:33:01;13.77;;;12.47;;
928;SDS011;451;47.988;7.842;2023-08-20T00:42:04;12.77;;;11.17;;
928;SDS011;451;47.988;7.842;2023-08-20T00:51:10;13.00;;;11.90;;
928;SDS011;451;47.988;7.842;2023-08-20T01:00:14;12.17;;;10.97;;
928;SDS011;451;47.988;7.842;2023-08-20T01:09:23;17.90;;;11.50;;
928;SDS011;451;47.988;7.842;2023-08-20T01:18:37;13.93;;;12.67;;
928;SDS011;451;47.988;7.842;2023-08-20T01:27:47;11.83;;;10.83;;
928;SDS011;451;47.988;7.842;2023-08-20T01:36:56;12.67;;;11.47;;
928;SDS011;451;47.988;7.842;2023-08-20T01:46:00;12.10;;;11.00;;
928;SDS011;451;47.988;7.842;2023-08-20T01:55:05;12.67;;;11.47;;
928;SDS011;451;47.988;7.842;2023-08-20T02:04:09;15.03;;;11.23;;
928;SDS011;451;47.988;7.842;2023-08-20T02:13:14;13.57;;;11.37;;
928;SDS011;451;47.988;7.842;2023-08-20T02:22:17;12.90;;;11.90;;
928;SDS011;451;47.988;7.842;2023-08-20T02:31:24;12.83;;;11.40;;
928;SDS011;451;47.988;7.842;2023-08-20T02:40:27;15.20;;;13.80;;
928;SDS011;451;47.988;7.842;2023-08-20T02:49:32;12.90;;;11.67;;
928;SDS011;451;47.988;7.842;2023-08-20T02:58:35;13.43;;;12.10;;
928;SDS011;451;47.988;7.842;2023-08-20T03:07:39;12.03;;;10.83;;
928;SDS011;451;47.988;7.842;2023-08-20T03:16:42;12.83;;;11.30;;
928;SDS011;451;47.988;7.842;2023-08-20T03:25:47;11.60;;;10.60;;
928;SDS011;451;47.988;7.842;2023-08-20T03:34:50;16.27;;;10.60;;
928;SDS011;451;47.988;7.842;2023-08-20T03:43:56;11.57;;;10.43;;
928;SDS011;451;47.988;7.842;2023-08-20T03:52:59;11.67;;;10.40;;
928;SDS011;451;47.988;7.842;2023-08-20T04:02:04;11.90;;;10.73;;
928;SDS011;451;47.988;7.842;2023-08-20T04:11:07;12.23;;;11.03;;
928;SDS011;451;47.988;7.842;2023-08-20T04:20:12;12.70;;;11.47;;
928;SDS011;451;47.988;7.842;2023-08-20T04:29:15;12.07;;;10.90;;
928;SDS011;451;47.988;7.842;2023-08-20T04:38:20;12.03;;;10.67;;
928;SDS011;451;47.988;7.842;2023-08-20T04:47:23;12.57;;;11.30;;
928;SDS011;451;47.988;7.842;2023-08-20T04:56:28;12.90;;;11.30;;
928;SDS011;451;47.988;7.842;2023-08-20T05:05:32;12.00;;;10.90;;
928;SDS011;451;47.988;7.842;2023-08-20T05:14:38;10.93;;;10.00;;
928;SDS011;451;47.988;7.842;2023-08-20T05:23:41;10.40;;;9.30;;
928;SDS011;451;47.988;7.842;2023-08-20T05:32:46;11.87;;;10.67;;
928;SDS011;451;47.988;7.842;2023-08-20T05:41:49;12.23;;;11.00;;
928;SDS011;451;47.988;7.842;2023-08-20T05:51:09;11.77;;;10.67;;
928;SDS011;451;47.988;7.842;2023-08-20T06:00:14;19.40;;;17.13;;
928;SDS011;451;47.988;7.842;2023-08-20T06:09:24;11.80;;;10.60;;
928;SDS011;451;47.988;7.842;2023-08-20T06:18:27;11.93;;;10.93;;
928;SDS011;451;47.988;7.842;2023-08-20T06:27:31;12.60;;;11.50;;
928;SDS011;451;47.988;7.842;2023-08-20T06:36:35;12.37;;;11.37;;
928;SDS011;451;47.988;7.842;2023-08-20T06:45:39;12.97;;;11.67;;
928;SDS011;451;47.988;7.842;2023-08-20T06:54:43;13.87;;;12.13;;
928;SDS011;451;47.988;7.842;2023-08-20T07:03:48;13.03;;;11.93;;
928;SDS011;451;47.988;7.842;2023-08-20T07:12:51;11.63;;;10.40;;
928;SDS011;451;47.988;7.842;2023-08-20T07:21:56;11.80;;;10.70;;
928;SDS011;451;47.988;7.842;2023-08-20T07:30:59;12.00;;;10.90;;
928;SDS011;451;47.988;7.842;2023-08-20T07:40:11;12.60;;;11.60;;
928;SDS011;451;47.988;7.842;2023-08-20T07:49:28;17.03;;;12.77;;
928;SDS011;451;47.988;7.842;2023-08-20T07:58:33;12.83;;;11.83;;
928;SDS011;451;47.988;7.842;2023-08-20T08:07:36;13.17;;;12.13;;
928;SDS011;451;47.988;7.842;2023-08-20T08:16:41;12.70;;;11.60;;
928;SDS011;451;47.988;7.842;2023-08-20T08:25:44;12.90;;;11.90;;
928;SDS011;451;47.988;7.842;2023-08-20T08:34:48;13.50;;;12.20;;
928;SDS011;451;47.988;7.842;2023-08-20T08:43:51;14.40;;;13.10;;
928;SDS011;451;47.988;7.842;2023-08-20T08:52:57;14.07;;;12.63;;
928;SDS011;451;47.988;7.842;2023-08-20T09:02:01;14.37;;;13.07;;
928;SDS011;451;47.988;7.842;2023-08-20T09:11:05;14.40;;;13.10;;
928;SDS011;451;47.988;7.842;2023-08-20T09:20:09;14.43;;;13.23;;
928;SDS011;451;47.988;7.842;2023-08-20T09:29:13;13.33;;;12.07;;
928;SDS011;451;47.988;7.842;2023-08-20T09:38:18;13.97;;;12.70;;
928;SDS011;451;47.988;7.842;2023-08-20T09:47:23;14.70;;;13.50;;
928;SDS011;451;47.988;7.842;2023-08-20T09:56:29;12.80;;;11.70;;
928;SDS011;451;47.988;7.842;2023-08-20T10:05:34;12.90;;;11.90;;
928;SDS011;451;47.988;7.842;2023-08-20T10:14:38;13.63;;;12.43;;
928;SDS011;451;47.988;7.842;2023-08-20T10:23:45;11.30;;;10.40;;
928;SDS011;451;47.988;7.842;2023-08-20T10:32:51;13.50;;;12.20;;
928;SDS011;451;47.988;7.842;2023-08-20T10:42:09;12.20;;;11.30;;
928;SDS011;451;47.988;7.842;2023-08-20T10:51:25;12.03;;;10.97;;
928;SDS011;451;47.988;7.842;2023-08-20T11:00:31;14.03;;;11.67;;
928;SDS011;451;47.988;7.842;2023-08-20T11:09:36;11.90;;;10.70;;
928;SDS011;451;47.988;7.842;2023-08-20T11:18:42;10.80;;;10.00;;
928;SDS011;451;47.988;7.842;2023-08-20T11:27:46;12.13;;;11.00;;
928;SDS011;451;47.988;7.842;2023-08-20T11:36:51;11.63;;;10.20;;
928;SDS011;451;47.988;7.842;2023-08-20T11:45:54;11.83;;;10.67;;
928;SDS011;451;47.988;7.842;2023-08-20T11:54:59;11.17;;;10.17;;
928;SDS011;451;47.988;7.842;2023-08-20T12:04:03;12.93;;;11.90;;
928;SDS011;451;47.988;7.842;2023-08-20T12:13:08;12.60;;;11.60;;
928;SDS011;451;47.988;7.842;2023-08-20T12:22:11;12.97;;;11.83;;
928;SDS011;451;47.988;7.842;2023-08-20T12:31:16;12.50;;;11.27;;
928;SDS011;451;47.988;7.842;2023-08-20T12:40:19;14.10;;;11.63;;
928;SDS011;451;47.988;7.842;2023-08-20T12:49:26;12.57;;;11.47;;
928;SDS011;451;47.988;7.842;2023-08-20T12:58:30;13.47;;;12.07;;
928;SDS011;451;47.988;7.842;2023-08-20T13:07:34;11.53;;;10.60;;
928;SDS011;451;47.988;7.842;2023-08-20T13:16:38;13.10;;;10.93;;
928;SDS011;451;47.988;7.842;2023-08-20T13:25:43;11.13;;;10.27;;
928;SDS011;451;47.988;7.842;2023-08-20T13:34:46;11.07;;;10.17;;
928;SDS011;451;47.988;7.842;2023-08-20T13:43:51;10.40;;;9.60;;
928;SDS011;451;47.988;7.842;2023-08-20T13:52:55;11.47;;;9.73;;
928;SDS011;451;47.988;7.842;2023-08-20T14:01:59;10.50;;;9.80;;
928;SDS011;451;47.988;7.842;2023-08-20T14:11:04;11.93;;;10.73;;
928;SDS011;451;47.988;7.842;2023-08-20T14:20:09;11.90;;;10.80;;
928;SDS011;451;47.988;7.842;2023-08-20T14:29:13;11.47;;;10.50;;
928;SDS011;451;47.988;7.842;2023-08-20T14:38:17;11.43;;;10.33;;
928;SDS011;451;47.988;7.842;2023-08-20T14:47:20;11.53;;;10.50;;
928;SDS011;451;47.988;7.842;2023-08-20T14:56:25;12.50;;;11.30;;
928;SDS011;451;47.988;7.842;2023-08-20T15:05:28;11.77;;;10.67;;
928;SDS011;451;47.988;7.842;2023-08-20T15:14:32;11.03;;;10.13;;
928;SDS011;451;47.988;7.842;2023-08-20T15:23:36;11.40;;;10.50;;
928;SDS011;451;47.988;7.842;2023-08-20T15:32:41;12.17;;;11.00;;
928;SDS011;451;47.988;7.842;2023-08-20T15:41:44;11.80;;;10.77;;
928;SDS011;451;47.988;7.842;2023-08-20T15:50:50;10.50;;;9.60;;
928;SDS011;451;47.988;7.842;2023-08-20T15:59:53;11.30;;;10.43;;
928;SDS011;451;47.988;7.842;2023-08-20T16:08:57;10.83;;;9.73;;
928;SDS011;451;47.988;7.842;2023-08-20T16:18:00;9.73;;;9.00;;
928;SDS011;451;47.988;7.842;2023-08-20T16:27:05;11.80;;;10.80;;
928;SDS011;451;47.988;7.842;2023-08-20T16:36:11;11.77;;;10.53;;
928;SDS011;451;47.988;7.842;2023-08-20T16:45:16;9.80;;;9.20;;
928;SDS011;451;47.988;7.842;2023-08-20T16:54:20;11.70;;;10.53;;
928;SDS011;451;47.988;7.842;2023-08-20T17:03:24;10.90;;;9.80;;
928;SDS011;451;47.988;7.842;2023-08-20T17:12:28;18.83;;;15.10;;
928;SDS011;451;47.988;7.842;2023-08-20T17:21:33;11.13;;;10.03;;
928;SDS011;451;47.988;7.842;2023-08-20T17:30:36;11.53;;;10.40;;
928;SDS011;451;47.988;7.842;2023-08-20T17:39:41;11.50;;;10.50;;
928;SDS011;451;47.988;7.842;2023-08-20T17:48:44;11.40;;;10.50;;
928;SDS011;451;47.988;7.842;2023-08-20T17:57:48;10.87;;;9.87;;
928;SDS011;451;47.988;7.842;2023-08-20T18:06:51;11.57;;;10.47;;
928;SDS011;451;47.988;7.842;2023-08-20T18:15:56;12.10;;;11.00;;
928;SDS011;451;47.988;7.842;2023-08-20T18:24:59;14.67;;;11.13;;
928;SDS011;451;47.988;7.842;2023-08-20T18:34:04;18.83;;;17.33;;
928;SDS011;451;47.988;7.842;2023-08-20T18:43:09;13.10;;;11.87;;
928;SDS011;451;47.988;7.842;2023-08-20T18:52:13;13.20;;;11.90;;
928;SDS011;451;47.988;7.842;2023-08-20T19:01:17;17.93;;;16.23;;
928;SDS011;451;47.988;7.842;2023-08-20T19:10:21;15.27;;;13.93;;
928;SDS011;451;47.988;7.842;2023-08-20T19:19:25;13.90;;;12.70;;
928;SDS011;451;47.988;7.842;2023-08-20T19:28:29;22.13;;;19.93;;
928;SDS011;451;47.988;7.842;2023-08-20T19:37:33;13.17;;;11.83;;
928;SDS011;451;47.988;7.842;2023-08-20T19:46:37;15.37;;;13.90;;
928;SDS011;451;47.988;7.842;2023-08-20T19:55:41;14.77;;;13.37;;
928;SDS011;451;47.988;7.842;2023-08-20T20:04:47;17.17;;;15.57;;
928;SDS011;451;47.988;7.842;2023-08-20T20:13:50;17.53;;;15.63;;
928;SDS011;451;47.988;7.842;2023-08-20T20:22:55;16.67;;;13.57;;
928;SDS011;451;47.988;7.842;2023-08-20T20:31:58;14.67;;;13.37;;
928;SDS011;451;47.988;7.842;2023-08-20T20:41:02;14.93;;;13.47;;
928;SDS011;451;47.988;7.842;2023-08-20T20:50:06;15.17;;;13.67;;
928;SDS011;451;47.988;7.842;2023-08-20T20:59:11;15.23;;;13.93;;
928;SDS011;451;47.988;7.842;2023-08-20T21:08:14;15.67;;;14.23;;
928;SDS011;451;47.988;7.842;2023-08-20T21:17:18;15.67;;;14.07;;
928;SDS011;451;47.988;7.842;2023-08-20T21:26:22;15.20;;;13.77;;
928;SDS011;451;47.988;7.842;2023-08-20T21:35:26;15.47;;;14.27;;
928;SDS011;451;47.988;7.842;2023-08-20T21:44:30;16.40;;;15.00;;
928;SDS011;451;47.988;7.842;2023-08-20T21:53:34;15.70;;;14.40;;
928;SDS011;451;47.988;7.842;2023-08-20T22:02:37;16.30;;;14.80;;
928;SDS011;451;47.988;7.842;2023-08-20T22:11:42;17.73;;;15.87;;
928;SDS011;451;47.988;7.842;2023-08-20T22:20:45;15.77;;;14.30;;
928;SDS011;451;47.988;7.842;2023-08-20T22:29:50;16.63;;;15.03;;
928;SDS011;451;47.988;7.842;2023-08-20T22:38:53;16.87;;;15.17;;
928;SDS011;451;47.988;7.842;2023-08-20T22:47:58;15.63;;;14.20;;
928;SDS011;451;47.988;7.842;2023-08-20T22:57:02;16.67;;;15.03;;
928;SDS011;451;47.988;7.842;2023-08-20T23:06:06;17.47;;;15.77;;
928;SDS011;451;47.988;7.842;2023-08-20T23:15:10;16.60;;;14.67;;
928;SDS011;451;47.988;7.842;2023-08-20T23:24:14;16.63;;;15.13;;
928;SDS011;451;47.988;7.842;2023-08-20T23:33:17;18.03;;;16.53;;
928;SDS011;451;47.988;7.842;2023-08-20T23:42:22;17.93;;;16.23;;
928;SDS011;451;47.988;7.842;2023-08-20T23:51:25;19.17;;;17.20;;
